Time;durP1;ratioP1;P1;durP2;ratioP2;P2;SDS_P1;SDS_P2;PMS_P1;PMS_P2;Temp;Humidity;BMP_temperature;BMP_pressure;BME280_temperature;BME280_humidity;BME280_pressure;Samples;Min_cycle;Max_cycle;Signal;HPM_P1;HPM_P2
2021/03/20 00:02:34;;;;;;;;;86.33;63.00;;;;;5.39;71.01;101208.78;4860843;29;8901;-76
2021/03/20 00:05:30;;;;;;;;;54.50;47.50;;;;;5.27;71.26;101205.53;4860932;29;8874;-76
2021/03/20 00:08:26;;;;;;;;;55.50;45.25;;;;;5.11;72.53;101204.81;4861437;29;11737;-76
2021/03/20 00:11:17;;;;;;;;;68.25;53.50;;;;;5.05;72.79;101196.88;4863060;29;11817;-75
2021/03/20 00:14:15;;;;;;;;;75.33;58.67;;;;;5.24;72.39;101195.97;4849372;29;11731;-75
2021/03/20 00:16:43;;;;;;;;;79.33;59.00;;;;;5.40;72.19;101201.38;4863132;29;8921;-75
2021/03/20 00:19:22;;;;;;;;;126.00;93.33;;;;;5.28;71.97;101198.94;4863612;29;12511;-75
2021/03/20 00:22:18;;;;;;;;;98.67;79.67;;;;;5.25;71.83;101205.00;4863340;29;8882;-76
2021/03/20 00:24:59;;;;;;;;;100.00;81.67;;;;;5.26;72.14;101192.94;4862358;29;8898;-75
2021/03/20 00:27:56;;;;;;;;;107.33;83.67;;;;;5.25;72.56;101200.34;4860817;29;8870;-75
2021/03/20 00:30:25;;;;;;;;;79.67;62.33;;;;;5.20;72.82;101200.38;4862980;29;8923;-75
2021/03/20 00:33:20;;;;;;;;;86.00;67.33;;;;;5.09;73.45;101196.03;4860622;29;9708;-75
2021/03/20 00:36:18;;;;;;;;;96.67;71.33;;;;;5.14;72.91;101192.47;4862271;29;8871;-75
2021/03/20 00:39:16;;;;;;;;;85.00;66.00;;;;;5.09;72.97;101201.53;4862624;29;8870;-75
2021/03/20 00:42:11;;;;;;;;;89.67;70.00;;;;;5.08;72.82;101199.91;4861931;29;8882;-75
2021/03/20 00:45:11;;;;;;;;;82.67;63.67;;;;;5.38;72.50;101196.16;4861387;29;8882;-75
2021/03/20 00:48:11;;;;;;;;;76.00;61.00;;;;;5.39;72.44;101202.47;4849306;29;8901;-75
2021/03/20 00:51:08;;;;;;;;;88.33;64.00;;;;;5.32;72.60;101196.47;4860605;29;8876;-75
2021/03/20 00:54:04;;;;;;;;;78.00;62.00;;;;;5.23;72.94;101202.56;4862278;29;8898;-76
2021/03/20 00:57:00;;;;;;;;;74.33;59.67;;;;;5.16;72.91;101198.47;4848584;29;8904;-76
2021/03/20 00:59:28;;;;;;;;;75.33;59.33;;;;;5.14;72.94;101198.78;4862260;29;8898;-76
2021/03/20 01:02:24;;;;;;;;;80.00;63.33;;;;;5.16;73.39;101195.75;4860577;29;9024;-74
2021/03/20 01:05:20;;;;;;;;;79.00;63.67;;;;;5.32;72.96;101199.22;4860046;29;8898;-76
2021/03/20 01:08:10;;;;;;;;;84.00;63.67;;;;;5.34;72.73;101199.75;4861110;29;8902;-76
2021/03/20 01:11:07;;;;;;;;;80.67;59.67;;;;;5.34;72.93;101197.00;4860133;29;9057;-76
2021/03/20 01:14:03;;;;;;;;;85.00;65.33;;;;;5.24;73.30;101193.22;4848199;29;8878;-76
2021/03/20 01:16:32;;;;;;;;;84.00;65.67;;;;;5.12;73.42;101195.47;4860349;29;8874;-76
2021/03/20 01:19:27;;;;;;;;;94.00;67.00;;;;;5.12;73.24;101192.72;4860523;29;8897;-76
2021/03/20 01:22:23;;;;;;;;;85.00;64.33;;;;;5.32;72.84;101199.22;4860545;29;8905;-75
2021/03/20 01:24:59;;;;;;;;;87.67;67.67;;;;;5.28;73.08;101202.50;4860478;29;8866;-74
2021/03/20 01:27:54;;;;;;;;;87.67;68.00;;;;;5.17;73.93;101197.38;4860276;29;8920;-75
2021/03/20 01:30:50;;;;;;;;;87.33;69.00;;;;;5.09;74.67;101198.78;4858807;29;8862;-75
2021/03/20 01:33:46;;;;;;;;;96.33;72.33;;;;;5.07;75.26;101201.00;4859910;29;8943;-76
2021/03/20 01:36:41;;;;;;;;;80.33;60.67;;;;;5.19;74.06;101193.25;4859681;29;8894;-76
2021/03/20 01:39:37;;;;;;;;;87.67;65.33;;;;;5.21;74.08;101196.53;4859886;29;8885;-75
2021/03/20 01:42:32;;;;;;;;;88.67;68.33;;;;;5.21;73.93;101196.53;4860180;29;8881;-75
2021/03/20 01:45:35;;;;;;;;;83.67;62.67;;;;;5.28;74.79;101191.53;4847866;29;8878;-75
2021/03/20 01:48:36;;;;;;;;;80.67;62.00;;;;;5.24;75.36;101189.66;4861378;29;8966;-76
2021/03/20 01:51:31;;;;;;;;;76.67;59.00;;;;;5.33;75.28;101187.97;4848476;29;8878;-76
2021/03/20 01:54:36;;;;;;;;;72.00;60.33;;;;;5.34;74.28;101194.25;4848140;29;8859;-76
2021/03/20 01:57:37;;;;;;;;;69.33;53.00;;;;;5.39;74.43;101188.75;4861713;29;9008;-75
2021/03/20 02:00:40;;;;;;;;;67.67;55.33;;;;;5.20;75.11;101192.13;4860076;29;8953;-76
2021/03/20 02:03:27;;;;;;;;;66.33;56.00;;;;;5.32;74.03;101196.47;4861691;29;11873;-76
2021/03/20 02:06:24;;;;;;;;;71.00;58.33;;;;;5.32;73.99;101191.81;4859572;29;8974;-76
2021/03/20 02:09:20;;;;;;;;;83.00;65.00;;;;;5.15;75.75;101194.94;4864175;29;11935;-76
2021/03/20 02:12:31;;;;;;;;;71.00;57.67;;;;;5.07;76.76;101192.78;4863153;29;8886;-76
2021/03/20 02:15:59;;;;;;;;;67.33;54.33;;;;;5.34;75.57;101195.09;4863411;29;11771;-76
2021/03/20 02:19:14;;;;;;;;;63.67;51.00;;;;;5.22;75.63;101191.88;4864449;29;8866;-76
2021/03/20 02:21:52;;;;;;;;;59.25;48.25;;;;;5.10;75.60;101194.94;4864238;29;11775;-76
2021/03/20 02:25:07;;;;;;;;;60.25;48.25;;;;;5.10;76.14;101194.94;4864691;29;11740;-75
2021/03/20 02:28:27;;;;;;;;;60.67;50.67;;;;;5.14;76.07;101190.53;4856555;29;11898;-76
2021/03/20 02:31:33;;;;;;;;;67.00;55.33;;;;;5.16;76.30;101184.78;4863613;29;11752;-76
2021/03/20 02:34:58;;;;;;;;;66.00;53.67;;;;;5.12;77.02;101190.00;4863329;29;12559;-76
2021/03/20 02:37:54;;;;;;;;;59.67;48.33;;;;;5.06;77.15;101193.88;4846952;29;11804;-75
2021/03/20 02:41:09;;;;;;;;;81.33;65.33;;;;;5.03;77.36;101188.94;4864071;29;11757;-75
2021/03/20 02:44:37;;;;;;;;;65.33;52.33;;;;;4.98;77.70;101194.44;4862775;29;8855;-76
2021/03/20 02:47:40;;;;;;;;;80.00;62.33;;;;;5.05;76.98;101199.63;4862255;29;8878;-75
2021/03/20 02:51:04;;;;;;;;;66.33;52.67;;;;;5.00;77.02;101209.53;4862590;29;11892;-75
2021/03/20 02:54:09;;;;;;;;;74.33;58.00;;;;;5.11;76.70;101195.75;4863747;29;8901;-76
2021/03/20 02:57:16;;;;;;;;;85.33;63.67;;;;;5.04;76.55;101204.28;4862288;29;8984;-75
2021/03/20 03:00:22;;;;;;;;;87.67;67.00;;;;;5.09;76.80;101203.47;4862934;29;8882;-75
2021/03/20 03:03:11;;;;;;;;;92.33;69.67;;;;;5.09;76.00;101203.47;4863220;29;8886;-75
2021/03/20 03:06:33;;;;;;;;;99.33;78.67;;;;;4.95;76.91;101206.78;4863041;29;8913;-75
2021/03/20 03:09:54;;;;;;;;;101.67;80.67;;;;;5.02;77.21;101198.28;4863240;29;8878;-75
2021/03/20 03:12:57;;;;;;;;;102.00;86.33;;;;;4.93;77.05;101206.25;4862421;29;9660;-75
2021/03/20 03:15:32;;;;;;;;;92.67;67.67;;;;;4.97;77.23;101201.03;4864753;29;8890;-75
2021/03/20 03:18:43;;;;;;;;;84.67;65.00;;;;;4.90;77.43;101204.06;4862233;29;8874;-76
2021/03/20 03:21:45;;;;;;;;;76.67;59.33;;;;;4.93;78.20;101197.22;4849464;29;8866;-75
2021/03/20 03:24:43;;;;;;;;;61.00;52.67;;;;;5.04;77.34;101209.78;4863876;29;9644;-77
2021/03/20 03:27:44;;;;;;;;;50.00;44.25;;;;;4.94;77.38;101202.41;4850089;29;11722;-76
2021/03/20 03:30:24;;;;;;;;;51.25;43.50;;;;;4.92;78.03;101212.84;4863064;29;11772;-75
2021/03/20 03:33:24;;;;;;;;;48.50;42.50;;;;;4.97;77.55;101201.03;4862469;29;11771;-75
2021/03/20 03:36:22;;;;;;;;;39.25;38.25;;;;;4.96;77.40;101211.16;4864568;29;11851;-74
2021/03/20 03:39:01;;;;;;;;;49.25;43.25;;;;;4.94;77.99;101213.38;4861447;29;11734;-75
2021/03/20 03:41:57;;;;;;;;;54.50;46.75;;;;;4.83;78.43;101209.06;4862116;29;11873;-75
2021/03/20 03:44:54;;;;;;;;;50.25;44.50;;;;;4.80;78.66;101203.31;4862986;29;11784;-75
2021/03/20 03:47:50;;;;;;;;;54.00;43.75;;;;;4.91;78.30;101216.69;4862741;29;11783;-75
2021/03/20 03:50:48;;;;;;;;;52.25;41.00;;;;;4.99;78.32;101207.06;4861354;29;11852;-75
2021/03/20 03:53:29;;;;;;;;;60.75;47.50;;;;;4.98;78.67;101205.41;4863971;29;11795;-76
2021/03/20 03:56:30;;;;;;;;;57.50;48.00;;;;;4.80;78.55;101214.25;4862963;29;11726;-75
2021/03/20 03:59:38;;;;;;;;;52.75;45.00;;;;;4.87;78.36;101218.34;4861983;29;12548;-75
2021/03/20 04:02:15;;;;;;;;;47.50;43.25;;;;;4.85;79.23;101217.81;4846669;29;11770;-75
2021/03/20 04:05:17;;;;;;;;;59.00;48.50;;;;;4.91;78.52;101224.91;4859853;29;11757;-75
2021/03/20 04:08:26;;;;;;;;;66.00;48.00;;;;;4.83;79.10;101221.91;4862059;29;11734;-75
2021/03/20 04:11:19;;;;;;;;;56.00;47.00;;;;;4.87;79.20;101223.81;4861866;29;11777;-76
2021/03/20 04:14:34;;;;;;;;;54.25;45.50;;;;;4.79;79.16;101232.63;4861959;29;12532;-76
2021/03/20 04:17:44;;;;;;;;;49.25;42.50;;;;;4.76;79.27;101230.44;4860917;29;11760;-76
2021/03/20 04:21:21;;;;;;;;;49.50;44.00;;;;;4.81;79.49;101235.06;4861372;29;11734;-76
2021/03/20 04:24:09;;;;;;;;;64.33;52.33;;;;;4.78;78.97;101236.47;4840004;29;12612;-76
2021/03/20 04:26:51;;;;;;;;;64.00;51.00;;;;;4.79;79.07;101237.28;4861626;29;9643;-74
2021/03/20 04:30:19;;;;;;;;;54.67;46.67;;;;;4.81;78.87;101229.59;4849434;29;11894;-75
2021/03/20 04:32:52;;;;;;;;;54.25;46.50;;;;;4.97;78.99;101236.66;4861231;29;11818;-75
2021/03/20 04:35:54;;;;;;;;;53.00;46.67;;;;;4.93;79.27;101235.59;4861101;29;11731;-75
2021/03/20 04:38:32;;;;;;;;;46.75;43.50;;;;;4.99;78.65;101237.22;4846839;29;11756;-74
2021/03/20 04:41:28;;;;;;;;;53.00;46.00;;;;;4.99;78.63;101232.56;4832669;29;11792;-74
2021/03/20 04:44:12;;;;;;;;;61.25;47.25;;;;;5.00;78.67;101241.59;4859745;29;11777;-75
2021/03/20 04:46:53;;;;;;;;;41.75;40.25;;;;;4.80;78.82;101237.00;4861563;29;11734;-75
2021/03/20 04:50:02;;;;;;;;;48.25;42.75;;;;;4.93;78.83;101230.13;4860586;29;11747;-74
2021/03/20 04:52:47;;;;;;;;;49.75;44.00;;;;;4.99;78.59;101234.47;4846879;29;11796;-75
2021/03/20 04:55:43;;;;;;;;;56.00;45.67;;;;;5.13;78.18;101229.19;4861660;29;11731;-75
2021/03/20 04:58:43;;;;;;;;;62.50;51.00;;;;;5.07;78.29;101239.38;4875931;29;12493;-75
2021/03/20 05:01:48;;;;;;;;;46.50;43.00;;;;;5.07;78.65;101236.66;4865773;29;11778;-75
2021/03/20 05:04:23;;;;;;;;;61.75;48.50;;;;;5.07;78.42;101233.09;4843872;29;11745;-75
2021/03/20 05:07:19;;;;;;;;;72.75;53.00;;;;;5.15;77.87;101229.75;4840589;29;11812;-76
2021/03/20 05:10:02;;;;;;;;;55.50;47.00;;;;;5.16;78.04;101228.66;4851015;29;11839;-76
2021/03/20 05:13:01;;;;;;;;;51.75;43.75;;;;;5.03;78.55;101233.63;4860596;29;11799;-75
2021/03/20 05:16:08;;;;;;;;;52.00;41.25;;;;;5.17;78.02;101222.06;4859524;29;11728;-76
2021/03/20 05:18:39;;;;;;;;;93.33;76.00;;;;;5.21;78.16;101229.44;4860773;29;11768;-76
2021/03/20 05:21:42;;;;;;;;;63.25;45.75;;;;;5.25;78.25;101224.22;4860661;29;8858;-76
2021/03/20 05:24:38;;;;;;;;;71.00;55.50;;;;;5.21;78.31;101223.13;4860485;29;12542;-76
2021/03/20 05:27:34;;;;;;;;;59.25;46.50;;;;;5.32;78.15;101229.38;4848243;29;11785;-75
2021/03/20 05:30:30;;;;;;;;;75.67;56.00;;;;;5.13;78.47;101230.00;4866028;29;11750;-76
2021/03/20 05:33:26;;;;;;;;;63.33;52.00;;;;;5.16;78.45;101223.16;4860468;29;8859;-76
2021/03/20 05:36:21;;;;;;;;;61.25;51.50;;;;;5.17;78.69;101230.28;4859498;29;11727;-76
2021/03/20 05:38:51;;;;;;;;;51.25;44.50;;;;;5.17;78.44;101233.03;4860094;29;11723;-76
2021/03/20 05:41:58;;;;;;;;;56.00;47.67;;;;;5.05;78.98;101233.34;4848677;29;11772;-75
2021/03/20 05:45:14;;;;;;;;;66.67;54.00;;;;;5.11;79.65;101234.16;4841487;29;11945;-76
2021/03/20 05:48:07;;;;;;;;;66.00;51.67;;;;;5.27;78.57;101228.31;4855723;29;11740;-76
2021/03/20 05:51:06;;;;;;;;;55.25;47.00;;;;;5.21;79.59;101240.44;4860150;29;12633;-76
2021/03/20 05:54:32;;;;;;;;;61.67;50.33;;;;;5.34;78.94;101238.16;4859228;29;11866;-77
2021/03/20 05:57:43;;;;;;;;;47.75;43.25;;;;;5.39;78.63;101240.88;4859285;29;11742;-76
2021/03/20 06:00:26;;;;;;;;;54.00;46.75;;;;;5.38;79.03;101241.97;4861660;29;11755;-77
2021/03/20 06:03:19;;;;;;;;;56.25;48.25;;;;;5.29;79.29;101248.06;4860797;29;12581;-76
2021/03/20 06:06:39;;;;;;;;;67.67;54.00;;;;;5.37;79.07;101251.28;4846918;29;12443;-77
2021/03/20 06:09:47;;;;;;;;;74.00;58.00;;;;;5.38;79.11;101250.22;4861658;29;11748;-75
2021/03/20 06:13:22;;;;;;;;;64.67;54.33;;;;;5.52;78.72;101254.78;4859682;29;11761;-76
2021/03/20 06:16:16;;;;;;;;;69.33;53.33;;;;;5.46;79.15;101257.84;4859454;29;11775;-77
2021/03/20 06:19:20;;;;;;;;;53.50;47.50;;;;;5.46;78.17;101252.34;4859714;29;11757;-76
2021/03/20 06:22:26;;;;;;;;;61.50;48.25;;;;;5.44;77.28;101260.84;4860908;29;11761;-77
2021/03/20 06:25:18;;;;;;;;;58.50;46.50;;;;;5.42;77.61;101260.31;4857433;29;11799;-77
2021/03/20 06:27:51;;;;;;;;;34.50;34.50;;;;;5.52;77.63;101267.66;4860517;29;11890;-76
2021/03/20 06:30:54;;;;;;;;;53.75;45.75;;;;;5.55;77.78;101267.94;4859970;29;11860;-76
2021/03/20 06:33:54;;;;;;;;;40.25;39.75;;;;;5.53;77.75;101258.34;4845400;29;11760;-76
2021/03/20 06:36:55;;;;;;;;;84.00;64.00;;;;;5.49;78.57;101262.75;4859849;29;11743;-76
2021/03/20 06:40:09;;;;;;;;;54.75;46.00;;;;;5.62;78.27;101259.41;4859358;29;8979;-76
2021/03/20 06:42:59;;;;;;;;;83.00;67.00;;;;;6.12;79.43;101262.91;4859569;29;11791;-76
2021/03/20 06:45:31;;;;;;;;;51.25;46.25;;;;;6.53;79.63;101263.38;4845127;29;8874;-79
2021/03/20 06:48:08;;;;;;;;;61.50;51.00;;;;;6.45;76.90;101272.25;4874299;29;11736;-78
2021/03/20 06:50:44;;;;;;;;;63.25;51.00;;;;;6.16;75.48;101268.66;4861153;29;11815;-78
2021/03/20 06:53:16;;;;;;;;;45.25;41.75;;;;;6.40;78.68;101283.28;4861363;29;11830;-79
2021/03/20 06:55:48;;;;;;;;;60.75;51.50;;;;;5.90;75.98;101277.03;4861459;29;11758;-79
2021/03/20 06:58:41;;;;;;;;;48.75;42.25;;;;;6.29;78.79;101274.31;4879982;29;11730;-79
2021/03/20 07:01:35;;;;;;;;;54.25;45.25;;;;;7.24;84.42;101272.75;4866804;29;11736;-82
2021/03/20 07:04:41;;;;;;;;;57.00;46.25;;;;;7.61;83.55;101269.25;4850208;29;12651;-79
2021/03/20 07:07:25;;;;;;;;;70.25;57.50;;;;;6.90;80.22;101270.13;4882250;29;11734;-81
2021/03/20 07:09:53;;;;;;;;;65.75;54.00;;;;;6.22;76.01;101270.25;4882188;29;11761;-75
2021/03/20 07:12:24;;;;;;;;;65.00;51.00;;;;;5.84;77.02;101273.53;4873368;29;11820;-76
2021/03/20 07:14:55;;;;;;;;;69.75;51.50;;;;;5.79;77.85;101265.31;4847680;29;11761;-76
2021/03/20 07:17:23;;;;;;;;;58.50;47.50;;;;;5.63;78.69;101273.94;4879668;23;11743;-66
2021/03/20 07:19:59;;;;;;;;;62.75;52.25;;;;;5.62;77.91;101280.53;4900410;29;11762;-68
2021/03/20 07:22:29;;;;;;;;;38.25;36.00;;;;;5.47;77.64;101276.75;4906378;23;11785;-77
2021/03/20 07:25:00;;;;;;;;;66.25;50.75;;;;;5.67;78.35;101275.81;4865771;29;11744;-77
2021/03/20 07:27:35;;;;;;;;;62.25;52.00;;;;;5.54;78.20;101273.72;4881893;29;11733;-76
2021/03/20 07:30:39;;;;;;;;;53.25;45.50;;;;;5.74;77.49;101276.31;4857845;29;11748;-78
2021/03/20 07:33:53;;;;;;;;;50.75;46.00;;;;;5.67;77.86;101275.81;4882788;29;11720;-77
2021/03/20 07:37:20;;;;;;;;;50.25;46.00;;;;;5.60;77.84;101269.84;4860535;29;12545;-76
2021/03/20 07:40:25;;;;;;;;;58.00;48.25;;;;;5.75;77.25;101274.38;4864104;29;11720;-76
2021/03/20 07:43:15;;;;;;;;;51.00;42.00;;;;;5.76;77.12;101279.63;4893061;29;11720;-78
2021/03/20 07:46:18;;;;;;;;;50.75;42.75;;;;;5.78;76.57;101282.88;4878103;29;11767;-77
2021/03/20 07:49:24;;;;;;;;;59.25;45.50;;;;;5.62;77.41;101272.28;4872107;29;11770;-76
2021/03/20 07:51:58;;;;;;;;;44.75;42.50;;;;;5.62;76.97;101280.53;4882067;29;11753;-77
2021/03/20 07:54:42;;;;;;;;;53.00;45.00;;;;;5.56;78.37;101280.53;4883760;29;11746;-76
2021/03/20 07:57:38;;;;;;;;;42.50;40.75;;;;;5.65;77.35;101286.25;4891104;29;11845;-77
2021/03/20 08:00:41;;;;;;;;;48.75;42.50;;;;;5.68;78.06;101282.97;4882527;29;11733;-77
2021/03/20 08:03:19;;;;;;;;;41.25;39.00;;;;;5.76;77.87;101284.28;4882278;29;11720;-79
2021/03/20 08:05:47;;;;;;;;;43.50;40.00;;;;;5.84;77.09;101284.50;4882009;29;11717;-80
2021/03/20 08:08:16;;;;;;;;;36.25;35.50;;;;;5.70;77.34;101286.25;4896295;29;11796;-78
2021/03/20 08:10:50;;;;;;;;;35.00;34.25;;;;;5.56;77.66;101276.97;4881953;29;11736;-78
2021/03/20 08:13:28;;;;;;;;;31.00;28.75;;;;;5.50;77.46;101278.09;4881974;29;11741;-77
2021/03/20 08:15:57;;;;;;;;;30.75;29.75;;;;;5.33;77.63;101281.22;4865105;29;11821;-77
2021/03/20 08:18:29;;;;;;;;;28.50;28.50;;;;;5.15;78.43;101285.41;4865026;29;11744;-77
2021/03/20 08:21:28;;;;;;;;;33.50;33.50;;;;;5.27;78.91;101280.41;4881284;29;11746;-80
2021/03/20 08:24:15;;;;;;;;;35.25;32.75;;;;;5.41;77.58;101266.91;4881249;29;11783;-78
2021/03/20 08:26:46;;;;;;;;;31.25;31.25;;;;;5.59;78.71;101266.25;4864722;29;11774;-78
2021/03/20 08:29:25;;;;;;;;;35.00;32.75;;;;;5.65;78.26;101268.97;4864685;29;11723;-78
2021/03/20 08:32:29;;;;;;;;;32.50;32.50;;;;;5.59;77.91;101271.72;4880490;29;12564;-78
2021/03/20 08:35:22;;;;;;;;;35.75;35.75;;;;;5.58;77.60;101275.59;4881293;29;11806;-78
2021/03/20 08:38:35;;;;;;;;;41.50;36.75;;;;;5.59;78.08;101276.41;4865139;29;11762;-77
2021/03/20 08:41:27;;;;;;;;;27.00;26.25;;;;;5.73;78.18;101262.88;4852411;29;11757;-79
2021/03/20 08:44:41;;;;;;;;;37.25;35.25;;;;;5.76;78.38;101273.31;4864769;29;11811;-79
2021/03/20 08:47:18;;;;;;;;;35.75;31.75;;;;;5.67;78.85;101273.06;4865231;29;12595;-78
2021/03/20 08:50:23;;;;;;;;;36.50;35.50;;;;;5.68;78.72;101276.66;4868394;29;11749;-78
2021/03/20 08:53:34;;;;;;;;;42.50;36.75;;;;;5.85;78.95;101277.09;4882204;29;11740;-77
2021/03/20 08:56:30;;;;;;;;;38.00;35.00;;;;;5.95;79.19;101277.03;4892070;29;11725;-79
2021/03/20 08:59:04;;;;;;;;;41.00;39.50;;;;;5.92;79.21;101277.63;4895550;29;11811;-79
2021/03/20 09:01:47;;;;;;;;;40.75;39.75;;;;;5.88;78.87;101276.50;4864797;29;11740;-78
2021/03/20 09:04:25;;;;;;;;;47.75;44.00;;;;;5.97;79.38;101277.56;4848321;29;11751;-78
2021/03/20 09:07:08;;;;;;;;;49.25;43.75;;;;;5.97;79.24;101276.75;4879122;29;11741;-78
2021/03/20 09:09:42;;;;;;;;;60.25;50.25;;;;;6.05;79.15;101279.69;4865553;29;11858;-77
2021/03/20 09:12:22;;;;;;;;;70.67;58.33;;;;;6.19;78.97;101271.63;4851797;29;11733;-78
2021/03/20 09:15:27;;;;;;;;;68.00;56.00;;;;;6.30;78.99;101275.13;4870926;29;11737;-77
2021/03/20 09:17:58;;;;;;;;;75.00;61.33;;;;;6.29;79.19;101266.06;4874567;29;12665;-79
2021/03/20 09:20:41;;;;;;;;;80.33;63.33;;;;;6.33;78.98;101266.31;4866901;29;11722;-79
2021/03/20 09:23:25;;;;;;;;;75.00;61.33;;;;;6.54;78.33;101265.00;4879199;29;8969;-79
2021/03/20 09:26:58;;;;;;;;;68.75;55.25;;;;;6.52;77.93;101270.00;4876339;29;11735;-79
2021/03/20 09:29:32;;;;;;;;;71.00;56.50;;;;;6.26;78.36;101263.88;4863137;29;11761;-78
2021/03/20 09:32:06;;;;;;;;;259.50;208.25;;;;;6.46;77.98;101273.06;4876950;29;11733;-78
2021/03/20 09:35:19;;;;;;;;;67.50;55.75;;;;;6.46;77.77;101273.06;4866960;29;8875;-77
2021/03/20 09:38:36;;;;;;;;;59.00;47.50;;;;;6.20;78.46;101278.75;4877715;29;11745;-78
2021/03/20 09:41:35;;;;;;;;;67.75;56.00;;;;;6.08;78.99;101273.66;4880420;29;12449;-78
2021/03/20 09:44:35;;;;;;;;;77.00;62.00;;;;;5.90;79.07;101284.44;4877718;29;11757;-78
2021/03/20 09:47:43;;;;;;;;;86.67;71.00;;;;;6.10;78.97;101267.88;4871435;29;8884;-78
2021/03/20 09:50:32;;;;;;;;;89.67;72.33;;;;;6.11;79.15;101277.75;4873290;29;8923;-79
2021/03/20 09:53:10;;;;;;;;;89.33;72.00;;;;;6.05;78.66;101276.13;4894057;29;8906;-79
2021/03/20 09:55:41;;;;;;;;;84.67;66.00;;;;;6.02;79.05;101274.78;4873927;29;8962;-77
2021/03/20 09:58:18;;;;;;;;;88.33;70.67;;;;;5.97;79.17;101277.56;4863032;29;8914;-77
2021/03/20 10:01:17;;;;;;;;;79.00;62.00;;;;;5.85;79.75;101277.09;4868071;29;8914;-76
2021/03/20 10:04:13;;;;;;;;;82.67;65.67;;;;;6.04;79.39;101280.00;4854561;29;8868;-77
2021/03/20 10:07:26;;;;;;;;;82.00;64.00;;;;;6.02;79.33;101277.53;4880915;29;8871;-78
2021/03/20 10:10:13;;;;;;;;;81.67;65.00;;;;;6.00;79.04;101278.94;4866860;29;8878;-79
2021/03/20 10:12:43;;;;;;;;;83.67;65.00;;;;;6.00;79.11;101274.28;4879023;29;8960;-75
2021/03/20 10:15:54;;;;;;;;;87.67;69.33;;;;;6.12;80.18;101273.88;4876520;29;8890;-76
2021/03/20 10:19:08;;;;;;;;;81.67;64.33;;;;;6.21;79.91;101276.84;4878160;29;8880;-75
2021/03/20 10:22:06;;;;;;;;;81.67;66.00;;;;;6.30;79.58;101275.13;4876424;29;8968;-75
2021/03/20 10:25:05;;;;;;;;;76.67;63.00;;;;;6.32;79.65;101270.16;4872225;29;8859;-77
2021/03/20 10:27:38;;;;;;;;;72.00;60.00;;;;;6.32;79.51;101276.47;4876455;29;8860;-76
2021/03/20 10:30:33;;;;;;;;;73.00;60.67;;;;;6.50;80.08;101277.69;4872101;29;8889;-76
2021/03/20 10:33:32;;;;;;;;;82.00;63.00;;;;;6.51;79.90;101275.75;4881464;29;8884;-77
2021/03/20 10:36:49;;;;;;;;;72.33;60.33;;;;;6.67;79.19;101271.72;4881660;29;11714;-77
2021/03/20 10:39:48;;;;;;;;;65.00;54.00;;;;;6.36;79.06;101273.97;4873160;29;11725;-77
2021/03/20 10:42:49;;;;;;;;;75.00;59.00;;;;;6.75;78.67;101262.88;4868586;29;11830;-74
2021/03/20 10:45:44;;;;;;;;;72.33;57.67;;;;;6.57;77.87;101269.09;4881598;29;11773;-76
2021/03/20 10:48:40;;;;;;;;;66.25;55.25;;;;;6.52;77.95;101258.19;4879143;29;11829;-76
2021/03/20 10:51:39;;;;;;;;;62.75;52.25;;;;;6.38;77.83;101263.53;4878740;29;11724;-76
2021/03/20 10:54:33;;;;;;;;;65.75;53.50;;;;;6.50;78.24;101261.19;4881311;29;11741;-76
2021/03/20 10:57:32;;;;;;;;;59.50;51.50;;;;;6.65;77.86;101255.53;4880516;29;12533;-75
2021/03/20 11:00:51;;;;;;;;;62.25;50.50;;;;;6.55;77.65;101258.41;4879173;29;11707;-75
2021/03/20 11:03:27;;;;;;;;;44.00;39.25;;;;;6.67;77.85;101258.00;4881281;29;11788;-75
2021/03/20 11:06:24;;;;;;;;;63.00;49.25;;;;;6.63;77.03;101259.69;4879614;29;11773;-79
2021/03/20 11:09:25;;;;;;;;;55.50;47.25;;;;;6.45;76.90;101257.69;4881780;29;11709;-77
2021/03/20 11:12:15;;;;;;;;;52.00;44.50;;;;;6.57;77.50;101249.88;4877326;29;11725;-78
2021/03/20 11:14:56;;;;;;;;;60.00;46.25;;;;;6.37;77.51;101250.91;4880718;29;11833;-79
2021/03/20 11:17:57;;;;;;;;;60.00;49.75;;;;;6.41;77.35;101254.69;4872845;29;11789;-79
2021/03/20 11:20:53;;;;;;;;;63.50;53.50;;;;;6.40;77.26;101264.84;4885583;29;11854;-75
2021/03/20 11:24:04;;;;;;;;;46.50;43.00;;;;;6.26;76.92;101258.38;4879746;29;11863;-80
2021/03/20 11:27:19;;;;;;;;;48.50;42.00;;;;;6.02;77.66;101261.06;4879364;29;11721;-80
2021/03/20 11:30:18;;;;;;;;;30.00;30.00;;;;;6.02;77.40;101252.81;4871956;29;11806;-79
2021/03/20 11:32:48;;;;;;;;;39.25;36.75;;;;;5.85;77.25;101255.94;4878966;29;11733;-79
2021/03/20 11:35:28;;;;;;;;;44.75;37.00;;;;;5.91;77.14;101264.19;4881195;29;11737;-78
2021/03/20 11:38:25;;;;;;;;;48.75;43.50;;;;;5.99;77.64;101252.59;4874943;29;11817;-78
2021/03/20 11:41:35;;;;;;;;;60.75;46.00;;;;;6.03;77.43;101262.69;4878661;29;11764;-77
2021/03/20 11:44:41;;;;;;;;;45.75;41.75;;;;;6.16;77.67;101255.75;4873090;29;11738;-78
2021/03/20 11:47:38;;;;;;;;;44.50;42.00;;;;;6.33;77.63;101256.13;4879839;29;12454;-79
2021/03/20 11:50:35;;;;;;;;;47.25;44.00;;;;;6.41;77.35;101255.50;4881756;29;11768;-78
2021/03/20 11:53:36;;;;;;;;;50.00;43.50;;;;;6.60;77.72;101254.78;4878089;29;12519;-78
2021/03/20 11:56:38;;;;;;;;;42.00;39.25;;;;;6.82;78.95;101255.06;4879797;29;11748;-80
2021/03/20 11:59:40;;;;;;;;;55.75;47.75;;;;;6.86;77.62;101263.59;4879521;29;12480;-80
2021/03/20 12:02:27;;;;;;;;;55.00;46.50;;;;;6.86;78.35;101258.91;4871800;29;11697;-79
2021/03/20 12:05:29;;;;;;;;;49.50;43.25;;;;;7.27;77.53;101261.16;4878827;29;11750;-79
2021/03/20 12:08:27;;;;;;;;;56.75;48.75;;;;;7.32;76.40;101268.53;4875966;29;11859;-80
2021/03/20 12:11:42;;;;;;;;;52.25;46.25;;;;;7.34;75.85;101271.81;4899428;29;11688;-80
2021/03/20 12:14:49;;;;;;;;;66.00;54.00;;;;;7.41;76.34;101269.50;4897407;29;11837;-77
2021/03/20 12:17:48;;;;;;;;;58.75;49.75;;;;;7.37;74.60;101271.22;4879065;29;11690;-77
2021/03/20 12:20:43;;;;;;;;;51.00;43.00;;;;;7.15;74.84;101271.78;4878444;29;11712;-77
2021/03/20 12:23:54;;;;;;;;;63.50;53.50;;;;;7.47;76.09;101271.09;4859369;29;11704;-77
2021/03/20 12:26:49;;;;;;;;;50.00;45.00;;;;;7.41;75.14;101269.50;4860059;29;11736;-77
2021/03/20 12:29:45;;;;;;;;;64.75;54.25;;;;;7.29;76.96;101275.44;4859880;29;11678;-77
2021/03/20 12:32:40;;;;;;;;;63.00;51.25;;;;;7.12;74.09;101277.84;4858117;29;11754;-77
2021/03/20 12:35:29;;;;;;;;;50.50;45.00;;;;;7.07;73.98;101280.69;4858116;29;12407;-79
2021/03/20 12:38:29;;;;;;;;;45.75;43.00;;;;;6.53;73.31;101281.78;4860695;29;11802;-78
2021/03/20 12:41:28;;;;;;;;;49.50;43.75;;;;;6.37;73.44;101279.19;4859490;29;11803;-77
2021/03/20 12:44:07;;;;;;;;;43.50;40.50;;;;;6.35;74.15;101277.81;4859823;29;11716;-78
2021/03/20 12:47:04;;;;;;;;;63.50;51.25;;;;;6.41;73.99;101287.66;4857315;29;11752;-77
2021/03/20 12:49:35;;;;;;;;;52.50;46.25;;;;;6.13;74.39;101275.53;4859946;29;12474;-77
2021/03/20 12:52:37;;;;;;;;;52.00;44.75;;;;;6.16;73.19;101283.22;4859520;29;11718;-78
2021/03/20 12:55:33;;;;;;;;;57.50;46.75;;;;;6.45;73.31;101275.00;4858177;29;11786;-78
2021/03/20 12:58:29;;;;;;;;;48.00;43.50;;;;;6.49;73.03;101276.03;4861664;29;11727;-77
2021/03/20 13:01:24;;;;;;;;;44.00;41.50;;;;;6.69;73.21;101269.53;4856751;29;11788;-78
2021/03/20 13:04:23;;;;;;;;;44.50;42.50;;;;;6.80;71.53;101272.97;4859508;29;11779;-78
2021/03/20 13:07:00;;;;;;;;;48.75;42.50;;;;;7.01;71.67;101282.66;4859715;29;11724;-78
2021/03/20 13:09:28;;;;;;;;;52.00;43.50;;;;;6.94;71.07;101283.00;4858475;29;11731;-77
2021/03/20 13:12:24;;;;;;;;;56.25;44.00;;;;;7.13;70.31;101274.81;4859664;29;11720;-77
2021/03/20 13:15:20;;;;;;;;;48.75;35.50;;;;;7.06;70.64;101276.28;4861192;29;11697;-76
2021/03/20 13:18:12;;;;;;;;;32.25;30.75;;;;;6.88;68.64;101277.84;4858561;29;11774;-76
2021/03/20 13:20:53;;;;;;;;;45.75;42.00;;;;;6.97;69.71;101278.84;4859481;29;11198;-77
2021/03/20 13:23:37;;;;;;;;;43.00;40.50;;;;;6.71;70.36;101275.56;4867529;29;11903;-77
2021/03/20 13:26:32;;;;;;;;;44.25;41.75;;;;;6.79;70.60;101274.91;4876537;29;11732;-77